createdAt,value
2023-02-16T00:00:48.822Z,25.73
2023-02-16T00:03:28.288Z,24.97
2023-02-16T00:05:55.525Z,25.70
2023-02-16T00:08:22.484Z,25.00
2023-02-16T00:11:08.412Z,25.30
2023-02-16T00:13:44.647Z,25.50
2023-02-16T00:16:22.051Z,24.73
2023-02-16T00:18:50.753Z,26.70
2023-02-16T00:21:18.882Z,25.47
2023-02-16T00:23:46.745Z,26.83
2023-02-16T00:26:18.377Z,25.13
2023-02-16T00:28:50.066Z,26.33
2023-02-16T00:31:21.492Z,24.43
2023-02-16T00:33:51.048Z,25.03
2023-02-16T00:36:21.129Z,26.27
2023-02-16T00:43:29.208Z,23.40
2023-02-16T00:45:58.149Z,22.90
2023-02-16T00:48:25.411Z,24.83
2023-02-16T00:50:53.883Z,24.67
2023-02-16T00:53:20.871Z,23.73
2023-02-16T00:55:47.962Z,24.63
2023-02-16T00:58:31.870Z,24.53
2023-02-16T01:01:13.171Z,24.93
2023-02-16T01:03:42.207Z,24.40
2023-02-16T01:06:29.828Z,25.03
2023-02-16T01:09:32.355Z,23.83
2023-02-16T01:12:02.455Z,23.63
2023-02-16T01:14:33.215Z,24.67
2023-02-16T01:17:00.590Z,25.53
2023-02-16T01:19:28.998Z,25.50
2023-02-16T01:21:58.768Z,25.10
2023-02-16T01:24:28.446Z,24.90
2023-02-16T01:26:55.408Z,26.20
2023-02-16T01:29:26.155Z,26.40
2023-02-16T01:31:53.297Z,25.03
2023-02-16T01:34:23.600Z,26.03
2023-02-16T01:36:50.658Z,26.00
2023-02-16T01:39:20.730Z,25.70
2023-02-16T01:42:11.002Z,25.47
2023-02-16T01:44:54.975Z,26.23
2023-02-16T01:47:49.305Z,25.93
2023-02-16T01:50:25.139Z,26.47
2023-02-16T01:53:26.948Z,24.37
2023-02-16T01:56:05.821Z,26.37
2023-02-16T01:58:47.800Z,25.07
2023-02-16T02:01:56.514Z,26.60
2023-02-16T02:04:59.251Z,24.63
2023-02-16T02:07:45.689Z,25.67
2023-02-16T02:10:44.958Z,25.03
2023-02-16T02:13:26.974Z,26.10
2023-02-16T02:15:58.355Z,25.93
2023-02-16T02:18:26.253Z,27.70
2023-02-16T02:21:57.748Z,24.70
2023-02-16T02:24:43.310Z,25.10
2023-02-16T02:27:20.400Z,24.57
2023-02-16T02:30:18.525Z,24.60
2023-02-16T02:33:43.259Z,25.27
2023-02-16T02:36:58.648Z,26.20
2023-02-16T02:39:32.837Z,24.87
2023-02-16T02:42:23.443Z,26.83
2023-02-16T02:45:02.322Z,24.57
2023-02-16T02:47:49.265Z,24.83
2023-02-16T02:51:08.034Z,25.23
2023-02-16T02:54:13.637Z,24.20
2023-02-16T02:57:13.743Z,25.07
2023-02-16T03:00:16.694Z,25.77
2023-02-16T03:02:49.144Z,25.47
2023-02-16T03:05:20.972Z,25.73
2023-02-16T03:07:57.511Z,27.37
2023-02-16T03:10:48.154Z,27.17
2023-02-16T03:13:29.132Z,26.33
2023-02-16T03:15:59.210Z,26.10
2023-02-16T03:18:47.961Z,26.03
2023-02-16T03:21:48.241Z,26.77
2023-02-16T03:24:48.741Z,25.90
2023-02-16T03:27:42.597Z,25.23
2023-02-16T03:30:12.654Z,23.83
2023-02-16T03:32:40.008Z,25.63
2023-02-16T03:35:08.620Z,25.73
2023-02-16T03:37:35.739Z,25.80
2023-02-16T03:40:23.862Z,26.10
2023-02-16T03:42:52.417Z,26.30
2023-02-16T03:45:21.178Z,25.73
2023-02-16T03:47:48.301Z,25.00
2023-02-16T03:50:17.098Z,25.83
2023-02-16T03:52:44.172Z,26.13
2023-02-16T03:55:13.372Z,27.63
2023-02-16T03:57:40.532Z,27.03
2023-02-16T04:00:08.463Z,27.40
2023-02-16T04:02:41.664Z,27.47
2023-02-16T04:05:08.794Z,27.77
2023-02-16T04:07:35.765Z,26.87
2023-02-16T04:10:03.200Z,26.47
2023-02-16T04:12:39.062Z,26.53
2023-02-16T04:15:13.859Z,26.57
2023-02-16T04:17:43.400Z,27.23
2023-02-16T04:20:14.659Z,29.27
2023-02-16T04:22:42.112Z,27.27
2023-02-16T04:25:09.492Z,27.57
2023-02-16T04:27:38.037Z,26.63
2023-02-16T04:30:07.825Z,28.23
2023-02-16T04:32:34.991Z,28.67
2023-02-16T04:35:02.061Z,27.63
2023-02-16T04:37:29.037Z,28.77
2023-02-16T04:39:56.018Z,27.90
2023-02-16T04:42:27.468Z,27.63
2023-02-16T04:44:54.610Z,26.90
2023-02-16T04:47:23.012Z,27.83
2023-02-16T04:49:50.450Z,27.47
2023-02-16T04:52:17.658Z,25.77
2023-02-16T04:54:44.687Z,26.47
2023-02-16T04:57:12.616Z,27.87
2023-02-16T04:59:39.633Z,26.73
2023-02-16T05:02:09.718Z,25.40
2023-02-16T05:04:37.777Z,26.20
2023-02-16T05:07:04.922Z,27.37
2023-02-16T05:09:31.978Z,27.73
2023-02-16T05:12:17.197Z,26.77
2023-02-16T05:14:46.874Z,25.67
2023-02-16T05:17:19.541Z,26.17
2023-02-16T05:20:01.889Z,27.20
2023-02-16T05:22:33.524Z,25.93
2023-02-16T05:25:03.975Z,26.27
2023-02-16T05:27:35.557Z,25.17
2023-02-16T05:30:02.990Z,25.00
2023-02-16T05:32:30.058Z,25.80
2023-02-16T05:34:57.167Z,25.77
2023-02-16T05:37:24.095Z,25.37
2023-02-16T05:39:52.845Z,25.57
2023-02-16T05:42:19.998Z,23.90
2023-02-16T05:44:47.056Z,24.70
2023-02-16T05:47:14.000Z,24.67
2023-02-16T05:49:41.325Z,26.00
2023-02-16T05:52:08.440Z,24.50
2023-02-16T05:54:38.361Z,24.37
2023-02-16T05:57:05.424Z,24.17
2023-02-16T05:59:32.348Z,25.10
2023-02-16T06:01:59.454Z,26.27
2023-02-16T06:04:26.527Z,25.33
2023-02-16T06:06:53.602Z,23.80
2023-02-16T06:09:21.106Z,23.80
2023-02-16T06:11:51.449Z,24.20
2023-02-16T06:14:21.564Z,24.23
2023-02-16T06:16:53.833Z,23.33
2023-02-16T06:19:21.508Z,24.17
2023-02-16T06:21:51.108Z,23.83
2023-02-16T06:24:18.254Z,24.67
2023-02-16T06:26:45.167Z,23.43
2023-02-16T06:29:12.175Z,23.77
2023-02-16T06:31:39.396Z,24.03
2023-02-16T06:34:07.045Z,22.80
2023-02-16T06:36:34.454Z,23.40
2023-02-16T06:39:03.335Z,23.03
2023-02-16T06:41:37.764Z,23.83
2023-02-16T06:44:08.979Z,23.27
2023-02-16T06:46:45.757Z,22.37
2023-02-16T06:49:19.765Z,22.73
2023-02-16T06:51:49.476Z,22.93
2023-02-16T06:54:17.234Z,22.67
2023-02-16T06:56:44.536Z,22.33
2023-02-16T06:59:13.379Z,22.57
2023-02-16T07:01:40.585Z,22.97
2023-02-16T07:04:08.161Z,23.27
2023-02-16T07:06:35.312Z,23.23
2023-02-16T07:09:03.514Z,22.60
2023-02-16T07:11:30.639Z,22.33
2023-02-16T07:14:01.027Z,23.10
2023-02-16T07:16:28.292Z,22.23
2023-02-16T07:18:55.420Z,22.60
2023-02-16T07:21:23.938Z,23.10
2023-02-16T07:23:51.078Z,23.17
2023-02-16T07:26:18.207Z,21.37
2023-02-16T07:28:45.512Z,22.23
2023-02-16T07:31:15.948Z,24.03
2023-02-16T07:33:43.991Z,22.80
2023-02-16T07:36:13.256Z,24.27
2023-02-16T07:38:43.262Z,23.70
2023-02-16T07:41:11.867Z,22.90
2023-02-16T07:43:39.472Z,22.73
2023-02-16T07:46:07.431Z,23.83
2023-02-16T07:48:34.990Z,23.40
2023-02-16T07:51:02.822Z,22.73
2023-02-16T07:53:30.122Z,24.43
2023-02-16T07:55:57.789Z,22.83
2023-02-16T07:58:27.416Z,22.90
2023-02-16T08:01:10.029Z,21.47
2023-02-16T08:03:38.329Z,21.63
2023-02-16T08:06:06.682Z,22.77
2023-02-16T08:08:34.103Z,23.00
2023-02-16T08:11:08.956Z,22.60
2023-02-16T08:13:36.401Z,22.03
2023-02-16T08:16:07.289Z,21.47
2023-02-16T08:18:34.841Z,22.30
2023-02-16T08:21:15.141Z,21.87
2023-02-16T08:23:47.390Z,22.10
2023-02-16T08:26:20.097Z,21.43
2023-02-16T08:28:50.206Z,21.13
2023-02-16T08:31:23.378Z,21.20
2023-02-16T08:33:53.054Z,20.70
2023-02-16T08:36:24.953Z,20.33
2023-02-16T08:38:53.962Z,21.33
2023-02-16T08:41:26.442Z,21.50
2023-02-16T08:43:55.072Z,20.60
2023-02-16T08:46:23.145Z,19.67
2023-02-16T08:48:50.437Z,21.33
2023-02-16T08:51:20.392Z,20.73
2023-02-16T08:53:47.499Z,20.10
2023-02-16T08:56:16.718Z,20.40
2023-02-16T08:58:43.881Z,20.57
2023-02-16T09:01:12.754Z,19.73
2023-02-16T09:03:42.920Z,19.67
2023-02-16T09:06:12.573Z,19.93
2023-02-16T09:08:40.825Z,19.43
2023-02-16T09:11:12.858Z,19.97
2023-02-16T09:13:44.723Z,19.17
2023-02-16T09:16:15.771Z,19.03
2023-02-16T09:18:45.132Z,18.80
2023-02-16T09:21:19.569Z,19.40
2023-02-16T09:23:50.148Z,19.13
2023-02-16T09:26:19.843Z,19.20
2023-02-16T09:28:48.952Z,20.00
2023-02-16T09:31:27.256Z,19.27
2023-02-16T09:34:08.132Z,19.30
2023-02-16T09:36:35.933Z,19.20
2023-02-16T09:39:03.139Z,19.80
2023-02-16T09:41:38.867Z,20.23
2023-02-16T09:44:28.373Z,18.73
2023-02-16T09:47:00.729Z,19.20
2023-02-16T09:49:37.852Z,20.53
2023-02-16T09:52:52.554Z,19.80
2023-02-16T09:55:26.058Z,18.23
2023-02-16T09:58:21.622Z,19.77
2023-02-16T10:01:02.323Z,19.30
2023-02-16T10:04:18.058Z,19.50
2023-02-16T10:07:31.712Z,18.40
2023-02-16T10:10:05.298Z,18.57
2023-02-16T10:13:05.733Z,20.37
2023-02-16T10:15:36.047Z,18.43
2023-02-16T10:18:34.081Z,18.60
2023-02-16T10:21:17.798Z,19.20
2023-02-16T10:23:56.618Z,19.37
2023-02-16T10:26:51.086Z,19.57
2023-02-16T10:29:23.571Z,20.77
2023-02-16T10:32:05.908Z,19.53
2023-02-16T10:35:13.349Z,19.13
2023-02-16T10:38:15.465Z,18.07
2023-02-16T10:41:03.936Z,18.07
2023-02-16T10:44:11.233Z,18.13
2023-02-16T10:46:47.647Z,19.30
2023-02-16T10:49:17.470Z,18.70
2023-02-16T10:51:52.016Z,19.07
2023-02-16T10:54:32.620Z,18.40
2023-02-16T10:57:20.259Z,19.97
2023-02-16T10:59:48.240Z,18.50
2023-02-16T11:02:25.451Z,19.73
2023-02-16T11:04:56.437Z,19.93
2023-02-16T11:07:28.587Z,20.13
2023-02-16T11:10:00.868Z,19.47
2023-02-16T11:12:34.283Z,20.23
2023-02-16T11:15:21.959Z,20.23
2023-02-16T11:17:50.889Z,20.23
2023-02-16T11:20:36.870Z,19.60
2023-02-16T11:23:35.383Z,20.60
2023-02-16T11:26:26.843Z,20.17
2023-02-16T11:29:06.996Z,19.60
2023-02-16T11:31:39.881Z,19.73
2023-02-16T11:34:29.110Z,19.63
2023-02-16T11:37:08.322Z,20.10
2023-02-16T11:39:42.471Z,19.47
2023-02-16T11:42:33.399Z,20.33
2023-02-16T11:45:03.805Z,19.30
2023-02-16T11:47:39.775Z,21.27
2023-02-16T11:50:31.415Z,20.67
2023-02-16T11:53:25.623Z,20.53
2023-02-16T11:56:24.602Z,19.53
2023-02-16T11:59:20.748Z,21.07
2023-02-16T12:02:01.352Z,18.80
2023-02-16T12:04:53.640Z,19.90
2023-02-16T12:08:00.000Z,21.20
2023-02-16T12:10:43.408Z,20.60
2023-02-16T12:13:46.650Z,20.50
2023-02-16T12:16:19.621Z,19.60
2023-02-16T12:19:12.220Z,20.40
2023-02-16T12:21:57.623Z,19.67
2023-02-16T12:25:04.640Z,19.13
2023-02-16T12:27:52.553Z,19.27
2023-02-16T12:30:33.859Z,18.67
2023-02-16T12:33:12.705Z,18.80
2023-02-16T12:35:58.282Z,18.63
2023-02-16T12:38:56.815Z,18.00
2023-02-16T12:42:13.022Z,18.00
2023-02-16T12:44:51.015Z,18.03
2023-02-16T12:47:37.899Z,18.30
2023-02-16T12:50:29.217Z,17.73
2023-02-16T12:53:11.968Z,18.80
2023-02-16T12:56:00.757Z,18.00
2023-02-16T12:58:38.648Z,18.20
2023-02-16T13:01:33.823Z,17.03
2023-02-16T13:04:39.286Z,17.30
2023-02-16T13:07:33.220Z,15.77
2023-02-16T13:10:38.175Z,16.50
2023-02-16T13:13:25.944Z,15.50
2023-02-16T13:16:28.735Z,16.20
2023-02-16T13:18:57.985Z,16.10
2023-02-16T13:22:06.411Z,16.50
2023-02-16T13:24:36.567Z,15.60
2023-02-16T13:27:37.243Z,14.93
2023-02-16T13:30:47.605Z,14.70
2023-02-16T13:34:30.700Z,14.00
2023-02-16T13:37:38.360Z,13.80
2023-02-16T13:40:35.780Z,13.80
2023-02-16T13:43:30.905Z,13.87
2023-02-16T13:46:03.769Z,12.70
2023-02-16T13:48:46.391Z,13.33
2023-02-16T13:51:20.840Z,11.83
2023-02-16T13:54:02.924Z,12.70
2023-02-16T13:56:29.853Z,12.93
2023-02-16T13:59:17.299Z,13.20
2023-02-16T14:01:47.654Z,12.70
2023-02-16T14:04:34.939Z,12.43
2023-02-16T14:07:08.103Z,11.90
2023-02-16T14:09:38.269Z,13.40
2023-02-16T14:12:39.849Z,12.35
2023-02-16T14:15:20.544Z,13.07
2023-02-16T14:17:47.931Z,13.03
2023-02-16T14:20:15.845Z,13.53
2023-02-16T14:22:45.743Z,13.83
2023-02-16T14:25:24.612Z,14.00
2023-02-16T14:28:31.960Z,14.07
2023-02-16T14:31:11.982Z,13.20
2023-02-16T14:34:05.064Z,14.03
2023-02-16T14:36:33.178Z,12.60
2023-02-16T14:39:01.572Z,13.73
2023-02-16T14:41:37.982Z,13.23
2023-02-16T14:44:04.923Z,13.27
2023-02-16T14:46:43.745Z,13.73
2023-02-16T14:49:51.995Z,13.73
2023-02-16T14:52:43.285Z,12.90
2023-02-16T14:55:34.097Z,13.13
2023-02-16T14:58:45.910Z,13.00
2023-02-16T15:01:19.040Z,13.57
2023-02-16T15:03:50.986Z,13.30
2023-02-16T15:06:33.764Z,13.57
2023-02-16T15:09:13.723Z,12.53
2023-02-16T15:12:14.796Z,13.73
2023-02-16T15:14:50.695Z,12.97
2023-02-16T15:17:45.028Z,13.57
2023-02-16T15:20:38.603Z,13.07
2023-02-16T15:23:17.702Z,13.47
2023-02-16T15:25:58.671Z,12.87
2023-02-16T15:28:33.774Z,12.93
2023-02-16T15:31:06.744Z,13.23
2023-02-16T15:33:54.884Z,13.87
2023-02-16T15:36:32.957Z,13.40
2023-02-16T15:39:12.958Z,14.10
2023-02-16T15:41:47.746Z,14.00
2023-02-16T15:44:34.344Z,14.23
2023-02-16T15:47:17.835Z,13.83
2023-02-16T15:49:45.106Z,14.33
2023-02-16T15:52:19.193Z,15.20
2023-02-16T15:54:49.716Z,14.60
2023-02-16T15:57:32.102Z,13.60
2023-02-16T16:00:21.773Z,12.93
2023-02-16T16:02:53.541Z,13.93
2023-02-16T16:05:33.025Z,13.87
2023-02-16T16:08:02.413Z,14.33
2023-02-16T16:10:36.892Z,12.90
2023-02-16T16:13:11.548Z,13.70
2023-02-16T16:15:50.083Z,13.07
2023-02-16T16:18:44.509Z,11.93
2023-02-16T16:21:26.817Z,11.40
2023-02-16T16:24:07.574Z,10.83
2023-02-16T16:26:57.608Z,11.83
2023-02-16T16:29:48.077Z,11.27
2023-02-16T16:32:28.939Z,11.10
2023-02-16T16:34:56.381Z,11.73
2023-02-16T16:37:31.472Z,11.33
2023-02-16T16:40:22.927Z,11.97
2023-02-16T16:43:09.413Z,11.47
2023-02-16T16:45:42.131Z,11.57
2023-02-16T16:48:31.848Z,12.40
2023-02-16T16:51:21.014Z,11.77
2023-02-16T16:54:21.676Z,11.77
2023-02-16T16:56:49.486Z,11.70
2023-02-16T16:59:17.094Z,11.13
2023-02-16T17:01:46.051Z,11.20
2023-02-16T17:04:13.024Z,10.70
2023-02-16T17:06:42.051Z,10.97
2023-02-16T17:09:09.152Z,10.40
2023-02-16T17:11:38.438Z,11.47
2023-02-16T17:14:16.805Z,12.33
2023-02-16T17:16:48.674Z,11.33
2023-02-16T17:19:21.357Z,11.60
2023-02-16T17:21:49.761Z,10.80
2023-02-16T17:24:16.847Z,11.87
2023-02-16T17:26:44.031Z,12.87
2023-02-16T17:29:13.238Z,13.13
2023-02-16T17:31:41.702Z,11.90
2023-02-16T17:34:08.823Z,12.30
2023-02-16T17:36:38.021Z,12.87
2023-02-16T17:39:05.327Z,12.57
2023-02-16T17:41:32.491Z,13.10
2023-02-16T17:43:59.795Z,11.77
2023-02-16T17:46:28.357Z,11.13
2023-02-16T17:48:55.428Z,12.03
2023-02-16T17:51:26.038Z,12.40
2023-02-16T17:53:53.294Z,12.73
2023-02-16T17:56:24.373Z,12.80
2023-02-16T17:58:51.927Z,12.23
2023-02-16T18:01:20.971Z,12.30
2023-02-16T18:03:49.254Z,12.93
2023-02-16T18:06:28.909Z,13.10
2023-02-16T18:08:57.191Z,11.90
2023-02-16T18:11:24.522Z,13.03
2023-02-16T18:13:52.209Z,12.57
2023-02-16T18:16:26.743Z,12.80
2023-02-16T18:18:54.459Z,12.23
2023-02-16T18:21:21.461Z,12.10
2023-02-16T18:23:48.680Z,12.37
2023-02-16T18:26:16.898Z,12.43
2023-02-16T18:28:45.609Z,13.50
2023-02-16T18:31:14.631Z,13.23
2023-02-16T18:33:42.863Z,14.03
2023-02-16T18:36:09.927Z,13.00
2023-02-16T18:38:37.001Z,13.17
2023-02-16T18:41:04.188Z,12.77
2023-02-16T18:43:31.439Z,13.20
2023-02-16T18:45:58.524Z,13.07
2023-02-16T18:48:25.620Z,13.47
2023-02-16T18:50:52.543Z,12.63
2023-02-16T18:53:19.612Z,13.57
2023-02-16T18:55:46.677Z,14.60
2023-02-16T18:58:14.957Z,13.70
2023-02-16T19:00:42.586Z,14.23
2023-02-16T19:03:09.815Z,13.90
2023-02-16T19:05:36.752Z,13.13
2023-02-16T19:08:04.008Z,13.90
2023-02-16T19:10:31.526Z,14.63
2023-02-16T19:13:00.223Z,12.57
2023-02-16T19:15:28.224Z,14.70
2023-02-16T19:17:55.168Z,14.77
2023-02-16T19:20:22.815Z,13.93
2023-02-16T19:22:50.528Z,14.07
2023-02-16T19:25:18.164Z,13.87
2023-02-16T19:27:45.252Z,14.53
2023-02-16T19:30:13.723Z,13.67
2023-02-16T19:32:41.986Z,14.67
2023-02-16T19:35:10.639Z,15.30
2023-02-16T19:37:37.769Z,13.17
2023-02-16T19:40:08.858Z,14.60
2023-02-16T19:42:36.581Z,14.83
2023-02-16T19:45:03.944Z,14.97
2023-02-16T19:47:30.985Z,14.33
2023-02-16T19:49:58.123Z,13.70
2023-02-16T19:52:25.159Z,14.50
2023-02-16T19:54:52.236Z,14.57
2023-02-16T19:57:19.329Z,14.13
2023-02-16T19:59:46.535Z,14.33
2023-02-16T20:02:15.787Z,15.00
2023-02-16T20:04:44.435Z,14.90
2023-02-16T20:07:11.661Z,14.27
2023-02-16T20:09:39.791Z,14.70
2023-02-16T20:12:07.101Z,14.37
2023-02-16T20:14:34.477Z,14.67
2023-02-16T20:17:01.499Z,14.53
2023-02-16T20:19:28.584Z,15.43
2023-02-16T20:21:55.603Z,14.20
2023-02-16T20:24:26.192Z,14.27
2023-02-16T20:26:53.216Z,15.23
2023-02-16T20:29:21.044Z,14.67
2023-02-16T20:31:55.333Z,16.13
2023-02-16T20:34:26.182Z,15.00
2023-02-16T20:36:54.055Z,15.87
2023-02-16T20:39:21.942Z,16.57
2023-02-16T20:41:49.163Z,15.57
2023-02-16T20:44:16.851Z,14.10
2023-02-16T20:46:43.981Z,15.23
2023-02-16T20:49:14.097Z,15.80
2023-02-16T20:51:41.739Z,16.27
2023-02-16T20:54:10.761Z,17.00
2023-02-16T20:56:38.055Z,15.70
2023-02-16T20:59:05.442Z,15.40
2023-02-16T21:01:46.755Z,14.97
2023-02-16T21:04:18.733Z,15.33
2023-02-16T21:06:46.113Z,14.93
2023-02-16T21:09:14.579Z,15.57
2023-02-16T21:11:45.477Z,15.60
2023-02-16T21:14:13.220Z,15.47
2023-02-16T21:16:43.361Z,15.63
2023-02-16T21:19:22.183Z,14.80
2023-02-16T21:21:50.434Z,14.57
2023-02-16T21:24:17.557Z,14.20
2023-02-16T21:26:44.630Z,13.90
2023-02-16T21:29:11.680Z,14.90
2023-02-16T21:31:38.849Z,13.87
2023-02-16T21:34:05.880Z,14.37
2023-02-16T21:36:33.172Z,14.80
2023-02-16T21:39:02.991Z,13.63
2023-02-16T21:41:31.145Z,12.77
2023-02-16T21:44:05.612Z,12.60
2023-02-16T21:46:45.078Z,12.23
2023-02-16T21:49:19.965Z,12.33
2023-02-16T21:51:48.705Z,11.60
2023-02-16T21:54:39.055Z,12.37
2023-02-16T21:57:06.096Z,11.23
2023-02-16T21:59:33.774Z,10.80
2023-02-16T22:02:00.807Z,10.53
2023-02-16T22:04:28.744Z,11.40
2023-02-16T22:06:56.134Z,10.43
2023-02-16T22:09:25.852Z,9.83
2023-02-16T22:11:52.954Z,10.20
2023-02-16T22:14:20.179Z,10.67
2023-02-16T22:16:48.538Z,9.47
2023-02-16T22:19:17.917Z,9.60
2023-02-16T22:21:47.637Z,9.30
2023-02-16T22:24:17.923Z,9.60
2023-02-16T22:26:49.303Z,8.77
2023-02-16T22:29:17.336Z,9.33
2023-02-16T22:31:47.903Z,9.23
2023-02-16T22:34:18.735Z,8.37
2023-02-16T22:36:46.039Z,8.63
2023-02-16T22:39:15.353Z,7.93
2023-02-16T22:41:45.574Z,7.90
2023-02-16T22:44:13.065Z,7.97
2023-02-16T22:46:40.107Z,8.53
2023-02-16T22:49:08.770Z,7.67
2023-02-16T22:51:37.442Z,7.47
2023-02-16T22:54:06.047Z,7.30
2023-02-16T22:56:35.108Z,7.57
2023-02-16T22:59:02.406Z,7.57
2023-02-16T23:01:31.481Z,7.23
2023-02-16T23:04:01.424Z,6.83
2023-02-16T23:06:31.415Z,7.13
2023-02-16T23:09:14.032Z,6.83
2023-02-16T23:11:42.124Z,6.97
2023-02-16T23:14:19.039Z,6.50
2023-02-16T23:16:54.482Z,7.47
2023-02-16T23:19:25.860Z,7.33
2023-02-16T23:21:54.792Z,6.60
2023-02-16T23:24:25.782Z,6.33
2023-02-16T23:26:54.312Z,6.40
2023-02-16T23:29:21.755Z,7.03
2023-02-16T23:31:49.558Z,6.23
2023-02-16T23:34:18.418Z,6.50
2023-02-16T23:36:46.454Z,6.27
2023-02-16T23:39:20.274Z,6.90
2023-02-16T23:41:47.576Z,6.07
2023-02-16T23:44:15.054Z,6.10
2023-02-16T23:46:42.669Z,6.47
2023-02-16T23:49:09.874Z,7.03
2023-02-16T23:51:36.928Z,7.43
2023-02-16T23:54:04.436Z,7.80
2023-02-16T23:56:31.723Z,8.37
2023-02-16T23:59:00.599Z,9.30
